Time;durP1;ratioP1;P1;durP2;ratioP2;P2;SDS_P1;SDS_P2;PMS_P1;PMS_P2;Temp;Humidity;BMP_temperature;BMP_pressure;BME280_temperature;BME280_humidity;BME280_pressure;Samples;Min_cycle;Max_cycle;Signal;HPM_P1;HPM_P2
2022/07/25 00:00:08;;;;;;;0.10;0.10;;;22.80;99.90;;;;;;5051958;28;20044;-87
2022/07/25 00:02:34;;;;;;;0.10;0.10;;;22.80;99.90;;;;;;5036689;28;20082;-88
2022/07/25 00:05:00;;;;;;;0.52;0.40;;;22.80;99.90;;;;;;5036202;28;20045;-88
2022/07/25 00:07:26;;;;;;;0.28;0.20;;;22.80;99.90;;;;;;5036180;28;20412;-87
2022/07/25 00:09:52;;;;;;;0.45;0.30;;;22.80;99.90;;;;;;5035550;28;20041;-88
2022/07/25 00:12:19;;;;;;;1.08;0.50;;;22.80;99.90;;;;;;5052828;28;20386;-88
2022/07/25 00:14:44;;;;;;;0.93;0.90;;;22.80;99.90;;;;;;5052663;28;20111;-87
2022/07/25 00:17:10;;;;;;;0.10;0.10;;;22.80;99.90;;;;;;5019718;28;20048;-82
2022/07/25 00:19:36;;;;;;;0.10;0.10;;;22.80;99.90;;;;;;5019687;28;20037;-82
2022/07/25 00:22:02;;;;;;;0.00;0.00;;;22.80;99.90;;;;;;5036119;28;20113;-82
2022/07/25 00:24:28;;;;;;;0.25;0.25;;;22.80;99.90;;;;;;5036032;28;20045;-82
2022/07/25 00:26:54;;;;;;;0.00;0.00;;;22.70;99.90;;;;;;5052429;28;20041;-82
2022/07/25 00:29:19;;;;;;;0.73;0.70;;;22.70;99.90;;;;;;5036237;28;20130;-82
2022/07/25 00:31:45;;;;;;;0.03;0.03;;;22.70;99.90;;;;;;5052394;28;20403;-82
2022/07/25 00:34:10;;;;;;;0.03;0.03;;;22.70;99.90;;;;;;5052478;28;20073;-87
2022/07/25 00:36:36;;;;;;;0.00;0.00;;;22.60;99.90;;;;;;5036025;28;20483;-88
2022/07/25 00:39:03;;;;;;;0.00;0.00;;;22.60;99.90;;;;;;5035793;28;20095;-88
2022/07/25 00:41:30;;;;;;;0.10;0.10;;;22.50;99.90;;;;;;5052222;28;20124;-88
2022/07/25 00:43:55;;;;;;;0.20;0.10;;;22.40;99.90;;;;;;5035808;28;20395;-87
2022/07/25 00:46:21;;;;;;;1.00;0.70;;;22.30;99.90;;;;;;5052196;28;20033;-87
2022/07/25 00:48:47;;;;;;;0.55;0.55;;;22.20;99.90;;;;;;5035699;28;20051;-87
2022/07/25 00:51:15;;;;;;;0.85;0.77;;;22.10;99.90;;;;;;5052454;28;20119;-84
2022/07/25 00:53:41;;;;;;;0.10;0.10;;;22.10;99.90;;;;;;5052140;28;20091;-84
2022/07/25 00:56:07;;;;;;;0.10;0.10;;;22.10;99.90;;;;;;5035514;28;20072;-84
2022/07/25 00:58:33;;;;;;;0.00;0.00;;;22.10;99.90;;;;;;5052132;28;20494;-84
2022/07/25 01:01:00;;;;;;;0.38;0.38;;;22.00;99.90;;;;;;5034386;28;20040;-83
2022/07/25 01:03:26;;;;;;;0.00;0.00;;;22.00;99.90;;;;;;5051989;28;20052;-84
2022/07/25 01:05:52;;;;;;;0.68;0.68;;;21.90;99.90;;;;;;5035141;28;20037;-83
2022/07/25 01:08:20;;;;;;;0.85;0.52;;;21.90;99.90;;;;;;5019307;28;20090;-83
2022/07/25 01:10:47;;;;;;;0.43;0.40;;;21.90;99.90;;;;;;5051783;28;20037;-83
2022/07/25 01:13:13;;;;;;;0.17;0.17;;;21.80;99.90;;;;;;5019299;28;20036;-84
2022/07/25 01:15:38;;;;;;;0.00;0.00;;;21.80;99.90;;;;;;5051652;28;20060;-84
2022/07/25 01:18:04;;;;;;;0.15;0.10;;;21.70;99.90;;;;;;5019250;28;20216;-83
2022/07/25 01:20:31;;;;;;;0.10;0.10;;;21.70;99.90;;;;;;5053143;28;20099;-84
2022/07/25 01:22:58;;;;;;;0.20;0.20;;;21.60;99.90;;;;;;5056318;28;20033;-87
2022/07/25 01:25:25;;;;;;;0.10;0.10;;;21.60;99.90;;;;;;5039263;28;20128;-87
2022/07/25 01:27:52;;;;;;;0.08;0.08;;;21.60;99.90;;;;;;5036253;28;20384;-87
2022/07/25 01:30:18;;;;;;;0.08;0.08;;;21.50;99.90;;;;;;5036080;28;20124;-87
2022/07/25 01:32:44;;;;;;;0.15;0.15;;;21.40;99.90;;;;;;5036102;28;20064;-87
2022/07/25 01:35:11;;;;;;;0.28;0.28;;;21.20;99.90;;;;;;5035902;28;20048;-87
2022/07/25 01:37:37;;;;;;;0.15;0.15;;;21.10;99.90;;;;;;5035767;28;20049;-87
2022/07/25 01:40:04;;;;;;;0.20;0.20;;;21.00;99.90;;;;;;5019629;28;20467;-82
2022/07/25 01:42:31;;;;;;;0.63;0.30;;;20.90;99.90;;;;;;5035724;28;20052;-82
2022/07/25 01:44:56;;;;;;;0.10;0.10;;;20.90;99.90;;;;;;5035685;28;20092;-82
2022/07/25 01:47:22;;;;;;;0.00;0.00;;;20.80;99.90;;;;;;5035690;28;20041;-82
2022/07/25 01:49:48;;;;;;;0.30;0.30;;;20.80;99.90;;;;;;5035896;28;20036;-82
2022/07/25 01:52:14;;;;;;;0.17;0.17;;;20.80;99.90;;;;;;5035862;28;20545;-82
2022/07/25 01:54:40;;;;;;;0.45;0.30;;;20.70;99.90;;;;;;5019035;28;20083;-82
2022/07/25 01:57:06;;;;;;;0.20;0.20;;;20.50;99.90;;;;;;5046490;28;20525;-82
2022/07/25 01:59:32;;;;;;;0.10;0.10;;;20.60;99.90;;;;;;5055645;28;20183;-82
2022/07/25 02:01:58;;;;;;;0.25;0.25;;;20.50;99.90;;;;;;5053786;28;20131;-82
2022/07/25 02:04:23;;;;;;;0.28;0.28;;;20.50;99.90;;;;;;5038628;28;20048;-82
2022/07/25 02:06:51;;;;;;;0.17;0.17;;;20.50;99.90;;;;;;5038890;28;20569;-82
2022/07/25 02:09:16;;;;;;;0.30;0.30;;;20.50;99.90;;;;;;5022530;28;20049;-82
2022/07/25 02:11:42;;;;;;;0.10;0.10;;;20.50;99.90;;;;;;5038251;28;20044;-82
2022/07/25 02:14:08;;;;;;;0.30;0.30;;;20.40;99.90;;;;;;5038371;28;20045;-84
2022/07/25 02:16:33;;;;;;;0.10;0.10;;;20.30;99.90;;;;;;5021979;28;20045;-84
2022/07/25 02:18:59;;;;;;;0.20;0.20;;;20.30;99.90;;;;;;5022028;28;20532;-83
2022/07/25 02:21:25;;;;;;;0.00;0.00;;;20.30;99.90;;;;;;5055090;28;20048;-83
2022/07/25 02:23:51;;;;;;;0.20;0.20;;;20.20;99.90;;;;;;5055260;28;20037;-83
2022/07/25 02:26:16;;;;;;;0.00;0.00;;;20.20;99.90;;;;;;5038280;28;20403;-83
2022/07/25 02:28:42;;;;;;;0.10;0.10;;;20.20;99.90;;;;;;5055184;28;20067;-83
2022/07/25 02:31:08;;;;;;;0.75;0.65;;;20.10;99.90;;;;;;5054641;28;20119;-82
2022/07/25 02:33:34;;;;;;;0.20;0.20;;;20.10;99.90;;;;;;5053882;28;20036;-82
2022/07/25 02:36:00;;;;;;;0.10;0.10;;;20.10;99.90;;;;;;5038092;28;20041;-82
2022/07/25 02:38:26;;;;;;;0.47;0.17;;;20.10;99.90;;;;;;5054702;28;20047;-82
2022/07/25 02:40:52;;;;;;;0.10;0.10;;;20.10;99.90;;;;;;5037958;28;20407;-82
2022/07/25 02:43:19;;;;;;;0.17;0.17;;;20.10;99.90;;;;;;5054532;28;20049;-82
2022/07/25 02:45:45;;;;;;;0.50;0.47;;;20.10;99.90;;;;;;5054435;28;20123;-82
2022/07/25 02:48:12;;;;;;;0.20;0.17;;;20.10;99.90;;;;;;5038271;28;20036;-87
2022/07/25 02:50:38;;;;;;;0.00;0.00;;;20.10;99.90;;;;;;5054453;28;20040;-88
2022/07/25 02:53:03;;;;;;;0.17;0.05;;;20.00;99.90;;;;;;5054343;28;20045;-87
2022/07/25 02:55:30;;;;;;;0.10;0.10;;;20.10;99.90;;;;;;5037745;28;20045;-87
2022/07/25 02:57:56;;;;;;;0.20;0.20;;;20.10;99.90;;;;;;5054460;28;20069;-87
2022/07/25 03:00:22;;;;;;;0.20;0.20;;;20.20;99.90;;;;;;5036653;28;20087;-87
2022/07/25 03:02:49;;;;;;;0.17;0.13;;;20.20;99.90;;;;;;5054102;28;20041;-87
2022/07/25 03:05:15;;;;;;;0.00;0.00;;;20.20;99.90;;;;;;5054046;28;20037;-87
2022/07/25 03:07:42;;;;;;;0.00;0.00;;;20.10;99.90;;;;;;5053964;28;20033;-87
2022/07/25 03:10:10;;;;;;;0.00;0.00;;;20.20;99.90;;;;;;5054074;28;20120;-87
2022/07/25 03:12:36;;;;;;;0.00;0.00;;;20.10;99.90;;;;;;5054382;28;20044;-87
2022/07/25 03:15:05;;;;;;;0.13;0.13;;;20.10;99.90;;;;;;5053785;28;20061;-87
2022/07/25 03:17:31;;;;;;;0.35;0.35;;;20.10;99.90;;;;;;5054175;28;20045;-88
2022/07/25 03:19:57;;;;;;;0.65;0.50;;;20.00;99.90;;;;;;5020871;28;20041;-84
2022/07/25 03:22:24;;;;;;;0.20;0.20;;;20.10;99.90;;;;;;5053999;28;20088;-83
2022/07/25 03:24:50;;;;;;;0.65;0.60;;;20.20;99.90;;;;;;5037269;28;20056;-83
2022/07/25 03:27:16;;;;;;;0.57;0.50;;;20.30;99.90;;;;;;5053707;28;20041;-83
2022/07/25 03:29:42;;;;;;;0.03;0.03;;;20.40;99.90;;;;;;5037045;28;20048;-83
2022/07/25 03:32:08;;;;;;;0.10;0.10;;;20.40;99.90;;;;;;5053450;28;20041;-83
2022/07/25 03:34:34;;;;;;;0.35;0.32;;;20.40;99.90;;;;;;5053805;28;20041;-83
2022/07/25 03:37:00;;;;;;;0.20;0.20;;;20.40;99.90;;;;;;5036989;28;20498;-87
2022/07/25 03:39:27;;;;;;;0.10;0.10;;;20.30;99.90;;;;;;5053842;28;20171;-87
2022/07/25 03:41:54;;;;;;;0.10;0.10;;;20.30;99.90;;;;;;5053881;28;20391;-87
2022/07/25 03:44:20;;;;;;;0.10;0.10;;;20.30;99.90;;;;;;5053193;28;20075;-87
2022/07/25 03:46:46;;;;;;;0.63;0.63;;;20.30;99.90;;;;;;5053577;28;20044;-88
2022/07/25 03:49:11;;;;;;;0.10;0.10;;;20.30;99.90;;;;;;5053289;28;20394;-87
2022/07/25 03:51:37;;;;;;;0.20;0.20;;;20.30;99.90;;;;;;5053458;28;20041;-87
2022/07/25 03:54:07;;;;;;;0.55;0.55;;;20.30;99.90;;;;;;5053512;28;20044;-84
2022/07/25 03:56:39;;;;;;;0.17;0.17;;;20.30;99.90;;;;;;5053077;28;20048;-83
2022/07/25 03:59:06;;;;;;;0.13;0.13;;;20.30;99.90;;;;;;5036887;28;20122;-83
2022/07/25 04:01:32;;;;;;;1.38;0.43;;;20.30;99.90;;;;;;5051663;28;20521;-83
2022/07/25 04:03:59;;;;;;;0.22;0.20;;;20.30;99.90;;;;;;5052820;28;20509;-83
2022/07/25 04:06:25;;;;;;;0.70;0.40;;;20.30;99.90;;;;;;5052961;28;20033;-83
2022/07/25 04:08:52;;;;;;;0.55;0.55;;;20.40;99.90;;;;;;5036293;28;20059;-84
2022/07/25 04:11:18;;;;;;;0.20;0.20;;;20.40;99.90;;;;;;5052947;28;20079;-82
2022/07/25 04:13:44;;;;;;;0.15;0.15;;;20.40;99.90;;;;;;5036554;28;20080;-82
2022/07/25 04:16:10;;;;;;;0.30;0.30;;;20.40;99.90;;;;;;5052644;28;20529;-82
2022/07/25 04:18:36;;;;;;;0.00;0.00;;;20.50;99.90;;;;;;5052730;28;20044;-82
2022/07/25 04:21:02;;;;;;;0.55;0.45;;;20.50;99.90;;;;;;5036295;28;20127;-82
2022/07/25 04:23:28;;;;;;;0.22;0.22;;;20.50;99.90;;;;;;5052640;28;20503;-82
2022/07/25 04:25:55;;;;;;;0.10;0.10;;;20.60;99.90;;;;;;5052535;28;20072;-82
2022/07/25 04:28:21;;;;;;;1.38;0.15;;;20.60;99.90;;;;;;5052681;28;20037;-82
2022/07/25 04:30:47;;;;;;;0.32;0.32;;;20.60;99.90;;;;;;5052460;28;20507;-82
2022/07/25 04:33:13;;;;;;;0.08;0.05;;;20.60;99.90;;;;;;5052699;28;20033;-82
2022/07/25 04:35:39;;;;;;;0.20;0.20;;;20.60;99.90;;;;;;5035709;28;20131;-82
2022/07/25 04:38:04;;;;;;;0.43;0.43;;;20.70;99.90;;;;;;5052396;28;20072;-82
2022/07/25 04:40:33;;;;;;;0.10;0.10;;;20.70;99.90;;;;;;5053563;28;20040;-82
2022/07/25 04:42:59;;;;;;;0.20;0.20;;;20.70;99.90;;;;;;5052359;28;20048;-83
2022/07/25 04:45:25;;;;;;;0.00;0.00;;;20.70;99.90;;;;;;5052225;28;20045;-83
2022/07/25 04:47:51;;;;;;;0.10;0.10;;;20.80;99.90;;;;;;5052470;28;20052;-84
2022/07/25 04:50:16;;;;;;;0.52;0.32;;;20.80;99.90;;;;;;5035861;28;20479;-83
2022/07/25 04:52:43;;;;;;;0.52;0.38;;;20.90;99.90;;;;;;5052162;28;20044;-84
2022/07/25 04:55:09;;;;;;;0.25;0.20;;;21.00;99.90;;;;;;5051624;28;20037;-83
2022/07/25 04:57:35;;;;;;;0.22;0.22;;;21.00;99.90;;;;;;5035543;28;20044;-83
2022/07/25 05:00:06;;;;;;;0.13;0.13;;;21.00;99.90;;;;;;5051520;28;20048;-83
2022/07/25 05:02:32;;;;;;;0.90;0.52;;;21.10;99.90;;;;;;5051763;28;20106;-83
2022/07/25 05:04:58;;;;;;;1.25;0.30;;;21.10;99.90;;;;;;5051942;28;20087;-83
2022/07/25 05:07:24;;;;;;;0.20;0.20;;;21.20;99.90;;;;;;5035239;28;20041;-83
2022/07/25 05:09:50;;;;;;;0.82;0.35;;;21.20;99.90;;;;;;5035444;28;20040;-83
2022/07/25 05:12:15;;;;;;;0.60;0.38;;;21.30;99.90;;;;;;5035336;28;20124;-84
2022/07/25 05:14:41;;;;;;;0.00;0.00;;;21.30;99.90;;;;;;5051836;28;20067;-84
2022/07/25 05:17:07;;;;;;;0.20;0.20;;;21.40;99.90;;;;;;5035569;28;20071;-87
2022/07/25 05:19:32;;;;;;;0.22;0.22;;;21.40;99.90;;;;;;5051979;28;20083;-88
2022/07/25 05:21:58;;;;;;;0.32;0.32;;;21.40;99.90;;;;;;5035544;28;20053;-88
2022/07/25 05:24:24;;;;;;;0.20;0.20;;;21.40;99.90;;;;;;5051816;28;20127;-88
2022/07/25 05:26:49;;;;;;;0.30;0.10;;;21.40;99.90;;;;;;5052060;28;20106;-87
2022/07/25 05:29:15;;;;;;;0.35;0.30;;;21.40;99.90;;;;;;5035473;28;20041;-87
2022/07/25 05:31:41;;;;;;;0.30;0.30;;;21.50;99.90;;;;;;5034989;28;20553;-88
2022/07/25 05:34:07;;;;;;;0.50;0.50;;;21.50;99.90;;;;;;5051639;28;20044;-84
2022/07/25 05:36:33;;;;;;;0.30;0.30;;;21.60;99.90;;;;;;5052036;28;20150;-84
2022/07/25 05:38:59;;;;;;;0.43;0.43;;;21.60;99.90;;;;;;5051842;28;20077;-84
2022/07/25 05:41:25;;;;;;;0.38;0.38;;;21.70;99.90;;;;;;5051520;28;20049;-83
2022/07/25 05:43:51;;;;;;;0.00;0.00;;;21.80;99.90;;;;;;5051949;28;20128;-83
2022/07/25 05:46:17;;;;;;;0.43;0.43;;;21.90;99.90;;;;;;5051909;28;20502;-84
2022/07/25 05:48:43;;;;;;;0.25;0.25;;;22.10;99.90;;;;;;5035136;28;20090;-84
2022/07/25 05:51:09;;;;;;;2.40;0.45;;;22.30;99.90;;;;;;5034869;28;20124;-88
2022/07/25 05:53:35;;;;;;;0.98;0.55;;;22.50;99.90;;;;;;5035006;28;20037;-88
2022/07/25 05:56:01;;;;;;;0.55;0.43;;;22.60;99.90;;;;;;5051398;28;20130;-88
2022/07/25 05:58:27;;;;;;;0.38;0.32;;;22.70;99.90;;;;;;5051483;28;20073;-88
2022/07/25 06:00:53;;;;;;;0.28;0.28;;;22.80;99.90;;;;;;5034705;28;20048;-88
2022/07/25 06:03:19;;;;;;;1.40;0.80;;;23.00;99.90;;;;;;5050006;28;20048;-88
2022/07/25 06:05:46;;;;;;;0.57;0.57;;;23.10;99.90;;;;;;5034754;28;20082;-88
2022/07/25 06:08:12;;;;;;;0.50;0.50;;;23.20;99.90;;;;;;5055569;28;20041;-88
2022/07/25 06:10:39;;;;;;;0.17;0.17;;;23.20;99.90;;;;;;5038550;28;20044;-88
2022/07/25 06:13:05;;;;;;;1.00;0.45;;;23.30;99.90;;;;;;5038459;28;20041;-88
2022/07/25 06:15:31;;;;;;;0.68;0.68;;;23.40;99.90;;;;;;5054804;28;20056;-88
2022/07/25 06:17:56;;;;;;;0.10;0.10;;;23.50;99.90;;;;;;5038426;28;20407;-88
2022/07/25 06:20:23;;;;;;;0.40;0.40;;;23.70;99.90;;;;;;5055244;28;20045;-88
2022/07/25 06:22:48;;;;;;;0.57;0.57;;;24.00;99.90;;;;;;5038299;28;20037;-88
2022/07/25 06:25:14;;;;;;;0.38;0.30;;;24.40;99.90;;;;;;5038287;28;20041;-89
2022/07/25 06:27:40;;;;;;;0.25;0.25;;;25.20;99.90;;;;;;5055015;28;20045;-89
2022/07/25 06:30:08;;;;;;;0.55;0.47;;;25.40;99.90;;;;;;5055042;28;20052;-88
2022/07/25 06:32:34;;;;;;;0.30;0.30;;;25.40;99.90;;;;;;5055043;28;20494;-89
2022/07/25 06:34:59;;;;;;;1.27;0.45;;;25.40;99.90;;;;;;5054800;28;20133;-89
2022/07/25 06:37:25;;;;;;;1.17;0.45;;;25.80;99.90;;;;;;5054649;28;20056;-89
2022/07/25 06:39:51;;;;;;;1.55;1.45;;;26.70;99.90;;;;;;5038355;28;20041;-89
2022/07/25 06:42:17;;;;;;;0.60;0.60;;;27.60;99.90;;;;;;5037852;28;20076;-89
2022/07/25 06:44:42;;;;;;;1.85;1.75;;;28.30;99.90;;;;;;5054400;28;20052;-89
2022/07/25 06:47:14;;;;;;;1.85;0.85;;;28.60;99.90;;;;;;5054478;28;20033;-89
2022/07/25 06:49:41;;;;;;;0.30;0.30;;;28.70;99.90;;;;;;5038156;28;20037;-89
2022/07/25 06:52:07;;;;;;;0.45;0.43;;;28.40;99.90;;;;;;5054640;28;20474;-89
2022/07/25 06:54:33;;;;;;;0.30;0.30;;;28.00;99.90;;;;;;5037927;28;20199;-89
2022/07/25 06:56:58;;;;;;;0.20;0.20;;;27.40;99.90;;;;;;5054505;28;20112;-83
2022/07/25 06:59:25;;;;;;;0.22;0.22;;;27.00;99.90;;;;;;5037676;28;20055;-83
2022/07/25 07:01:50;;;;;;;0.60;0.60;;;26.70;99.90;;;;;;5037582;28;20051;-83
2022/07/25 07:04:16;;;;;;;0.30;0.30;;;26.50;99.90;;;;;;5052747;28;20053;-83
2022/07/25 07:06:42;;;;;;;0.85;0.60;;;26.60;99.90;;;;;;5037519;28;20037;-82
2022/07/25 07:09:08;;;;;;;2.58;1.98;;;27.30;99.90;;;;;;5037457;28;20044;-83
2022/07/25 07:11:34;;;;;;;0.25;0.25;;;28.10;99.90;;;;;;5037237;28;20040;-83
2022/07/25 07:14:04;;;;;;;0.38;0.38;;;28.50;99.90;;;;;;5037414;28;20075;-88
2022/07/25 07:16:30;;;;;;;0.40;0.40;;;29.30;99.90;;;;;;5053826;28;20064;-88
2022/07/25 07:18:57;;;;;;;0.55;0.47;;;29.50;99.90;;;;;;5053434;28;20128;-88
2022/07/25 07:21:23;;;;;;;0.28;0.28;;;29.20;99.00;;;;;;5037499;28;20392;-88
2022/07/25 07:23:49;;;;;;;0.38;0.38;;;28.70;99.90;;;;;;5020761;28;20040;-88
2022/07/25 07:26:15;;;;;;;0.35;0.35;;;28.20;99.90;;;;;;5036962;28;20037;-88
2022/07/25 07:28:41;;;;;;;0.73;0.65;;;27.70;99.90;;;;;;5037444;28;20383;-88
2022/07/25 07:31:07;;;;;;;0.32;0.22;;;27.30;99.90;;;;;;5037099;28;20043;-89
2022/07/25 07:33:33;;;;;;;0.80;0.55;;;27.30;99.90;;;;;;5053972;28;20045;-89
2022/07/25 07:36:00;;;;;;;0.30;0.30;;;27.90;99.90;;;;;;5053888;28;20111;-90
2022/07/25 07:38:26;;;;;;;1.45;0.93;;;29.40;99.90;;;;;;5037047;28;20037;-90
2022/07/25 07:40:52;;;;;;;1.30;0.90;;;30.30;98.50;;;;;;5037109;28;20032;-90
2022/07/25 07:43:19;;;;;;;0.40;0.35;;;30.20;97.80;;;;;;5053518;28;20036;-89
2022/07/25 07:45:45;;;;;;;0.10;0.10;;;29.60;97.50;;;;;;5053226;28;20036;-89
2022/07/25 07:48:11;;;;;;;0.70;0.32;;;28.80;97.80;;;;;;5053732;28;20045;-83
2022/07/25 07:50:37;;;;;;;0.55;0.50;;;28.10;98.10;;;;;;5053300;28;20040;-83
2022/07/25 07:53:03;;;;;;;0.10;0.10;;;27.50;98.30;;;;;;5053327;28;20076;-84
2022/07/25 07:55:44;;;;;;;0.30;0.30;;;27.20;98.40;;;;;;5053144;28;20076;-83
2022/07/25 07:58:16;;;;;;;0.17;0.17;;;27.30;98.20;;;;;;5036688;28;20049;-83
2022/07/25 08:00:46;;;;;;;0.25;0.25;;;27.40;98.00;;;;;;5053384;28;20041;-83
2022/07/25 08:03:17;;;;;;;0.30;0.30;;;27.20;97.70;;;;;;5035401;28;20067;-89
2022/07/25 08:05:44;;;;;;;0.25;0.25;;;27.00;97.70;;;;;;5052906;28;20048;-89
2022/07/25 08:08:12;;;;;;;0.30;0.30;;;26.60;97.20;;;;;;5036627;28;20072;-89
2022/07/25 08:10:40;;;;;;;0.03;0.03;;;26.10;97.80;;;;;;5036308;28;20128;-89
2022/07/25 08:13:18;;;;;;;0.20;0.20;;;25.70;98.10;;;;;;5052944;28;20082;-89
2022/07/25 08:15:45;;;;;;;0.13;0.13;;;25.20;99.10;;;;;;5052561;28;20060;-89
2022/07/25 08:18:11;;;;;;;0.10;0.10;;;24.90;99.70;;;;;;5036586;28;20053;-89
2022/07/25 08:20:37;;;;;;;0.10;0.10;;;24.60;99.80;;;;;;5052990;28;20080;-88
2022/07/25 08:23:04;;;;;;;0.10;0.10;;;24.30;99.90;;;;;;5036453;28;20103;-88
2022/07/25 08:25:30;;;;;;;0.20;0.20;;;24.10;99.90;;;;;;5035938;28;20049;-88
2022/07/25 08:27:56;;;;;;;1.55;0.30;;;23.90;99.90;;;;;;5036206;28;20040;-88
2022/07/25 08:30:21;;;;;;;0.10;0.10;;;23.80;99.90;;;;;;5052038;28;20449;-89
2022/07/25 08:32:56;;;;;;;0.10;0.10;;;23.70;99.90;;;;;;5052570;28;20073;-89
2022/07/25 08:35:23;;;;;;;0.20;0.13;;;23.70;99.90;;;;;;5035724;28;20491;-89
2022/07/25 08:37:50;;;;;;;0.10;0.10;;;24.00;99.90;;;;;;5052566;28;20041;-89
2022/07/25 08:40:17;;;;;;;0.00;0.00;;;24.30;99.90;;;;;;5036027;28;20074;-89
2022/07/25 08:42:43;;;;;;;0.10;0.10;;;25.30;99.90;;;;;;5052371;28;20083;-89
2022/07/25 08:45:15;;;;;;;0.28;0.28;;;25.70;99.90;;;;;;5052234;28;20041;-89
2022/07/25 08:47:41;;;;;;;0.00;0.00;;;25.80;99.90;;;;;;5052170;28;20049;-89
2022/07/25 08:50:14;;;;;;;0.47;0.40;;;25.60;99.90;;;;;;5035666;28;20037;-89
2022/07/25 08:52:48;;;;;;;0.10;0.10;;;25.20;99.90;;;;;;5052066;28;20495;-89
2022/07/25 08:55:19;;;;;;;0.00;0.00;;;24.90;99.90;;;;;;5052358;28;20048;-85
2022/07/25 08:57:50;;;;;;;0.00;0.00;;;24.60;99.90;;;;;;5052472;28;20040;-85
2022/07/25 09:00:18;;;;;;;0.10;0.10;;;24.40;99.90;;;;;;5052024;28;20045;-85
2022/07/25 09:02:53;;;;;;;0.05;0.03;;;24.30;99.90;;;;;;5035748;28;20071;-85
2022/07/25 09:05:21;;;;;;;0.10;0.10;;;24.20;99.90;;;;;;5051484;28;20048;-85
2022/07/25 09:07:46;;;;;;;0.43;0.43;;;24.20;99.90;;;;;;5051769;28;20110;-85
2022/07/25 09:10:27;;;;;;;0.30;0.30;;;24.20;99.90;;;;;;5052033;28;20066;-88
2022/07/25 09:12:59;;;;;;;0.43;0.20;;;24.30;99.90;;;;;;5035786;28;20055;-89
2022/07/25 09:15:36;;;;;;;0.15;0.10;;;24.50;99.90;;;;;;5035073;28;20103;-88
2022/07/25 09:18:13;;;;;;;0.10;0.10;;;24.60;99.90;;;;;;5052253;28;20091;-89
2022/07/25 09:20:47;;;;;;;0.10;0.10;;;24.60;99.90;;;;;;5019485;28;20045;-89
2022/07/25 09:23:25;;;;;;;0.10;0.10;;;24.60;99.90;;;;;;5051803;28;20041;-89
2022/07/25 09:25:51;;;;;;;0.17;0.17;;;24.80;99.90;;;;;;5051761;28;20041;-89
2022/07/25 09:28:18;;;;;;;0.38;0.38;;;24.90;99.90;;;;;;5052240;28;20095;-84
2022/07/25 09:30:55;;;;;;;0.60;0.30;;;25.10;99.90;;;;;;5057799;23;20052;-89
2022/07/25 09:33:23;;;;;;;0.08;0.08;;;25.00;99.90;;;;;;5055127;28;20036;-89
2022/07/25 09:35:50;;;;;;;0.20;0.20;;;24.80;99.90;;;;;;5055044;28;20110;-89
2022/07/25 09:38:17;;;;;;;0.00;0.00;;;24.60;99.90;;;;;;5072226;28;20045;-89
2022/07/25 09:40:57;;;;;;;0.10;0.10;;;24.30;99.90;;;;;;5071686;28;20079;-89
2022/07/25 09:43:39;;;;;;;0.20;0.20;;;23.70;99.90;;;;;;5059429;28;20055;-87
2022/07/25 09:46:06;;;;;;;0.40;0.40;;;23.10;99.90;;;;;;5075655;28;20037;-87
2022/07/25 09:48:32;;;;;;;0.10;0.10;;;22.70;99.90;;;;;;5059010;28;20043;-87
2022/07/25 09:50:58;;;;;;;0.20;0.20;;;22.40;99.90;;;;;;5075862;28;20044;-87
2022/07/25 09:53:25;;;;;;;0.25;0.25;;;22.40;99.90;;;;;;5075654;28;20042;-88
2022/07/25 09:55:53;;;;;;;0.10;0.10;;;22.50;99.90;;;;;;5075491;28;20127;-87
2022/07/25 09:58:19;;;;;;;0.10;0.10;;;23.00;99.90;;;;;;5075444;28;20483;-88
2022/07/25 10:00:45;;;;;;;0.30;0.30;;;24.20;99.90;;;;;;5058638;28;20036;-84
2022/07/25 10:03:22;;;;;;;0.10;0.10;;;24.60;99.90;;;;;;5074298;28;20047;-84
2022/07/25 10:06:13;;;;;;;0.73;0.52;;;24.70;99.90;;;;;;5075247;28;20047;-84
2022/07/25 10:08:40;;;;;;;0.08;0.08;;;24.80;99.90;;;;;;5075568;28;20436;-85
2022/07/25 10:11:17;;;;;;;0.10;0.10;;;24.90;99.90;;;;;;5058641;28;20079;-85
2022/07/25 10:13:43;;;;;;;0.10;0.10;;;24.80;99.90;;;;;;5058734;28;20179;-85
2022/07/25 10:16:20;;;;;;;0.00;0.00;;;25.00;99.90;;;;;;5075110;28;20132;-89
2022/07/25 10:18:55;;;;;;;0.08;0.08;;;25.40;99.90;;;;;;5075199;28;20513;-85
2022/07/25 10:21:22;;;;;;;0.13;0.13;;;25.70;99.90;;;;;;5075042;28;20128;-85
2022/07/25 10:24:05;;;;;;;0.47;0.35;;;25.90;99.90;;;;;;5074758;28;20040;-85
2022/07/25 10:26:33;;;;;;;0.20;0.20;;;26.10;99.90;;;;;;5058479;28;20040;-85
2022/07/25 10:29:00;;;;;;;4.03;1.00;;;26.70;99.90;;;;;;5075688;28;20037;-86
2022/07/25 10:31:32;;;;;;;0.03;0.03;;;27.50;99.90;;;;;;5061434;28;20040;-85
2022/07/25 10:34:03;;;;;;;0.10;0.10;;;28.10;99.90;;;;;;5061444;28;20557;-89
2022/07/25 10:36:54;;;;;;;0.45;0.15;;;29.40;99.90;;;;;;5061709;28;20036;-90
2022/07/25 10:39:21;;;;;;;0.20;0.20;;;29.90;99.50;;;;;;5078484;28;20044;-89
2022/07/25 10:42:01;;;;;;;0.30;0.30;;;30.60;98.30;;;;;;5077889;28;20048;-89
2022/07/25 10:44:38;;;;;;;0.28;0.22;;;30.10;97.10;;;;;;5061302;28;20520;-89
2022/07/25 10:47:05;;;;;;;0.20;0.15;;;29.40;96.60;;;;;;5078300;28;20118;-89
2022/07/25 10:49:36;;;;;;;5.45;1.13;;;29.40;97.70;;;;;;5061224;28;20040;-89
2022/07/25 10:52:03;;;;;;;0.30;0.30;;;28.90;97.00;;;;;;5061215;28;20048;-89
2022/07/25 10:54:34;;;;;;;0.20;0.20;;;28.30;97.20;;;;;;5060194;28;20097;-89
2022/07/25 10:57:01;;;;;;;0.47;0.40;;;27.50;97.70;;;;;;5077685;28;20032;-88
2022/07/25 10:59:36;;;;;;;0.30;0.30;;;27.00;98.90;;;;;;5077960;28;20431;-88
2022/07/25 11:02:05;;;;;;;0.50;0.47;;;26.30;99.90;;;;;;5077695;28;20047;-87
2022/07/25 11:04:31;;;;;;;0.05;0.05;;;25.60;99.90;;;;;;5059376;28;20041;-88
2022/07/25 11:07:06;;;;;;;1.67;0.63;;;25.10;99.90;;;;;;5077417;28;20036;-89
2022/07/25 11:09:33;;;;;;;0.20;0.13;;;25.00;99.90;;;;;;5077475;28;20044;-89
2022/07/25 11:11:59;;;;;;;0.20;0.20;;;25.10;99.90;;;;;;5077651;28;20098;-89
2022/07/25 11:14:32;;;;;;;0.15;0.15;;;25.40;99.90;;;;;;5077683;28;20397;-89
2022/07/25 11:17:19;;;;;;;0.00;0.00;;;25.80;99.90;;;;;;5077424;28;20040;-89
2022/07/25 11:19:58;;;;;;;0.20;0.20;;;25.90;99.90;;;;;;5077416;28;20039;-89
2022/07/25 11:22:25;;;;;;;0.10;0.10;;;25.80;99.90;;;;;;5060732;28;20043;-89
2022/07/25 11:24:51;;;;;;;0.20;0.20;;;26.00;99.90;;;;;;5060625;28;20040;-83
2022/07/25 11:27:22;;;;;;;0.10;0.05;;;26.60;99.90;;;;;;5060482;28;20047;-83
2022/07/25 11:29:48;;;;;;;0.00;0.00;;;27.30;99.40;;;;;;5073653;28;20127;-85
2022/07/25 11:32:14;;;;;;;0.20;0.20;;;27.50;98.60;;;;;;5073885;28;20040;-86
2022/07/25 11:34:50;;;;;;;1.50;1.30;;;27.50;98.80;;;;;;5073782;28;20526;-85
2022/07/25 11:37:17;;;;;;;0.10;0.10;;;27.30;99.30;;;;;;5073567;28;20044;-85
2022/07/25 11:39:45;;;;;;;0.00;0.00;;;27.20;99.40;;;;;;5056947;28;20051;-88
2022/07/25 11:42:15;;;;;;;0.75;0.55;;;27.10;98.90;;;;;;5073966;28;20406;-89
2022/07/25 11:44:49;;;;;;;0.15;0.15;;;26.90;98.80;;;;;;5073469;28;20087;-89
2022/07/25 11:47:23;;;;;;;0.20;0.20;;;26.50;98.80;;;;;;5073450;28;20097;-89
2022/07/25 11:49:51;;;;;;;0.22;0.20;;;26.40;99.20;;;;;;5073364;28;20157;-89
2022/07/25 11:52:20;;;;;;;0.10;0.10;;;26.40;99.10;;;;;;5073418;28;20402;-89
2022/07/25 11:54:55;;;;;;;0.00;0.00;;;26.50;98.90;;;;;;5073261;28;20131;-89
2022/07/25 11:57:23;;;;;;;0.00;0.00;;;26.70;99.10;;;;;;5073102;28;20387;-89
2022/07/25 11:59:49;;;;;;;0.08;0.08;;;26.80;99.10;;;;;;5073410;28;20040;-89
2022/07/25 12:02:27;;;;;;;0.35;0.35;;;26.90;99.20;;;;;;5073070;28;20517;-90
2022/07/25 12:04:58;;;;;;;0.95;0.80;;;27.40;98.70;;;;;;5071429;28;20131;-89
2022/07/25 12:07:51;;;;;;;0.10;0.10;;;27.40;97.40;;;;;;5056233;28;20048;-89
2022/07/25 12:10:33;;;;;;;0.05;0.05;;;27.30;97.90;;;;;;5036910;28;20131;-89
2022/07/25 12:13:03;;;;;;;0.03;0.03;;;27.00;97.30;;;;;;5073263;28;20040;-86
2022/07/25 12:15:41;;;;;;;0.10;0.10;;;26.90;97.20;;;;;;5056334;28;20044;-85
2022/07/25 12:18:09;;;;;;;0.43;0.43;;;26.80;97.10;;;;;;5072876;28;20123;-85
2022/07/25 12:20:41;;;;;;;0.17;0.17;;;27.30;96.60;;;;;;5055995;28;20052;-85
2022/07/25 12:23:10;;;;;;;0.10;0.10;;;28.20;95.70;;;;;;5072805;28;20075;-86
2022/07/25 12:25:41;;;;;;;0.38;0.28;;;29.10;96.00;;;;;;5055800;28;20045;-86
2022/07/25 12:28:09;;;;;;;0.30;0.30;;;29.30;94.50;;;;;;5070746;28;20036;-86
2022/07/25 12:30:35;;;;;;;0.55;0.55;;;28.80;94.20;;;;;;5072399;28;20059;-89
2022/07/25 12:33:00;;;;;;;0.20;0.20;;;28.00;94.70;;;;;;5056046;28;20043;-89
2022/07/25 12:35:26;;;;;;;0.43;0.28;;;27.40;95.60;;;;;;5055766;28;20421;-88
2022/07/25 12:37:52;;;;;;;0.00;0.00;;;26.90;95.90;;;;;;5056093;28;20043;-88
2022/07/25 12:40:19;;;;;;;0.28;0.28;;;26.40;96.40;;;;;;5072735;28;20414;-88
2022/07/25 12:42:45;;;;;;;1.00;0.40;;;25.90;97.20;;;;;;5072377;28;20101;-89
2022/07/25 12:45:12;;;;;;;0.00;0.00;;;25.50;97.70;;;;;;5055567;28;20047;-89
2022/07/25 12:47:38;;;;;;;0.20;0.20;;;25.20;97.80;;;;;;5072168;28;20444;-89
2022/07/25 12:50:05;;;;;;;0.10;0.10;;;25.20;98.20;;;;;;5072368;28;20036;-89